EDAC

Altenburg-Nobitz Airport

Altenburg, Germany
METAR EDAC 221650Z 09005KT 060V130 CAVOK 23/10 Q1012
Observed Flight Rules
Apr-22 @ 16:50 UTC (2 hours ago) Visual Flight Rules
Wind Visibility Clouds
90° at 5 knots 10,000+ meters
  • Clear skies
Temperatures Readings
Current 23°C / 73°F
Dewpoint 10°C / 50°F
Humidity 44%
Altimeter 29.88" Hg
Pressure 1012 hPa
Elevation 195
METAR EDAC 221650Z 09005KT 060V130 CAVOK 23/10 Q1012
Observed Flight Rules
Apr-22 @ 16:50 UTC
(2 hours ago)
VFR
Wind Visibility
90° at 5 knots 10,000+ meters
Clouds
  • Clear skies
Temperature Dewpoint
23°C / 73°F 10°C / 50°F
Humidity Altimeter Pressure
44% 29.88" Hg 1012 hPa